sensor_id;sensor_type;location;lat;lon;timestamp;P1;durP1;ratioP1;P2;durP2;ratioP2
10872;SDS011;34586;53.616;10.032;2023-07-22T00:00:59;7.03;;;6.27;;
10872;SDS011;34586;53.616;10.032;2023-07-22T00:03:25;7.60;;;6.80;;
10872;SDS011;34586;53.616;10.032;2023-07-22T00:06:01;7.23;;;6.27;;
10872;SDS011;34586;53.616;10.032;2023-07-22T00:08:34;6.53;;;5.93;;
10872;SDS011;34586;53.616;10.032;2023-07-22T00:11:02;7.97;;;6.50;;
10872;SDS011;34586;53.616;10.032;2023-07-22T00:13:28;8.10;;;6.40;;
10872;SDS011;34586;53.616;10.032;2023-07-22T00:15:54;9.20;;;6.80;;
10872;SDS011;34586;53.616;10.032;2023-07-22T00:18:20;7.10;;;6.40;;
10872;SDS011;34586;53.616;10.032;2023-07-22T00:20:46;8.73;;;7.13;;
10872;SDS011;34586;53.616;10.032;2023-07-22T00:23:12;7.67;;;6.83;;
10872;SDS011;34586;53.616;10.032;2023-07-22T00:25:40;8.13;;;6.83;;
10872;SDS011;34586;53.616;10.032;2023-07-22T00:28:06;10.20;;;7.20;;
10872;SDS011;34586;53.616;10.032;2023-07-22T00:30:31;8.87;;;7.10;;
10872;SDS011;34586;53.616;10.032;2023-07-22T00:32:57;9.70;;;7.20;;
10872;SDS011;34586;53.616;10.032;2023-07-22T00:35:22;11.30;;;6.87;;
10872;SDS011;34586;53.616;10.032;2023-07-22T00:37:48;9.00;;;6.67;;
10872;SDS011;34586;53.616;10.032;2023-07-22T00:40:14;12.37;;;7.97;;
10872;SDS011;34586;53.616;10.032;2023-07-22T00:42:40;8.80;;;7.87;;
10872;SDS011;34586;53.616;10.032;2023-07-22T00:45:06;9.37;;;7.90;;
10872;SDS011;34586;53.616;10.032;2023-07-22T00:47:33;8.90;;;7.57;;
10872;SDS011;34586;53.616;10.032;2023-07-22T00:50:02;11.10;;;7.90;;
10872;SDS011;34586;53.616;10.032;2023-07-22T00:52:28;13.13;;;7.97;;
10872;SDS011;34586;53.616;10.032;2023-07-22T00:54:54;11.43;;;7.77;;
10872;SDS011;34586;53.616;10.032;2023-07-22T00:57:20;9.17;;;7.27;;
10872;SDS011;34586;53.616;10.032;2023-07-22T00:59:47;8.87;;;7.73;;
10872;SDS011;34586;53.616;10.032;2023-07-22T01:02:13;9.47;;;7.87;;
10872;SDS011;34586;53.616;10.032;2023-07-22T01:04:38;9.37;;;8.33;;
10872;SDS011;34586;53.616;10.032;2023-07-22T01:07:05;9.43;;;8.50;;
10872;SDS011;34586;53.616;10.032;2023-07-22T01:09:36;10.00;;;8.37;;
10872;SDS011;34586;53.616;10.032;2023-07-22T01:12:02;11.07;;;9.00;;
10872;SDS011;34586;53.616;10.032;2023-07-22T01:14:28;10.93;;;8.50;;
10872;SDS011;34586;53.616;10.032;2023-07-22T01:16:54;12.77;;;9.30;;
10872;SDS011;34586;53.616;10.032;2023-07-22T01:19:19;13.60;;;8.90;;
10872;SDS011;34586;53.616;10.032;2023-07-22T01:21:46;11.07;;;8.10;;
10872;SDS011;34586;53.616;10.032;2023-07-22T01:24:12;13.07;;;9.00;;
10872;SDS011;34586;53.616;10.032;2023-07-22T01:26:39;12.80;;;8.67;;
10872;SDS011;34586;53.616;10.032;2023-07-22T01:29:05;10.57;;;8.67;;
10872;SDS011;34586;53.616;10.032;2023-07-22T01:31:31;10.50;;;8.33;;
10872;SDS011;34586;53.616;10.032;2023-07-22T01:33:59;11.50;;;8.60;;
10872;SDS011;34586;53.616;10.032;2023-07-22T01:36:25;10.87;;;8.70;;
10872;SDS011;34586;53.616;10.032;2023-07-22T01:38:50;10.23;;;8.90;;
10872;SDS011;34586;53.616;10.032;2023-07-22T01:41:16;10.33;;;8.20;;
10872;SDS011;34586;53.616;10.032;2023-07-22T01:43:41;11.30;;;8.87;;
10872;SDS011;34586;53.616;10.032;2023-07-22T01:46:07;12.73;;;8.27;;
10872;SDS011;34586;53.616;10.032;2023-07-22T01:48:33;10.57;;;8.40;;
10872;SDS011;34586;53.616;10.032;2023-07-22T01:50:58;11.63;;;8.27;;
10872;SDS011;34586;53.616;10.032;2023-07-22T01:53:24;10.30;;;8.57;;
10872;SDS011;34586;53.616;10.032;2023-07-22T01:55:50;11.33;;;8.17;;
10872;SDS011;34586;53.616;10.032;2023-07-22T01:58:16;13.87;;;7.70;;
10872;SDS011;34586;53.616;10.032;2023-07-22T02:00:41;12.97;;;8.10;;
10872;SDS011;34586;53.616;10.032;2023-07-22T02:03:07;12.50;;;8.60;;
10872;SDS011;34586;53.616;10.032;2023-07-22T02:05:33;14.90;;;9.03;;
10872;SDS011;34586;53.616;10.032;2023-07-22T02:07:58;12.13;;;8.40;;
10872;SDS011;34586;53.616;10.032;2023-07-22T02:10:24;15.27;;;8.17;;
10872;SDS011;34586;53.616;10.032;2023-07-22T02:12:49;11.83;;;8.17;;
10872;SDS011;34586;53.616;10.032;2023-07-22T02:15:15;14.90;;;8.40;;
10872;SDS011;34586;53.616;10.032;2023-07-22T02:17:40;12.00;;;7.70;;
10872;SDS011;34586;53.616;10.032;2023-07-22T02:20:06;12.73;;;7.77;;
10872;SDS011;34586;53.616;10.032;2023-07-22T02:22:33;11.27;;;7.93;;
10872;SDS011;34586;53.616;10.032;2023-07-22T02:24:59;12.23;;;8.90;;
10872;SDS011;34586;53.616;10.032;2023-07-22T02:27:25;11.53;;;7.50;;
10872;SDS011;34586;53.616;10.032;2023-07-22T02:29:50;14.47;;;8.00;;
10872;SDS011;34586;53.616;10.032;2023-07-22T02:32:17;9.77;;;7.67;;
10872;SDS011;34586;53.616;10.032;2023-07-22T02:34:42;10.00;;;7.23;;
10872;SDS011;34586;53.616;10.032;2023-07-22T02:37:08;11.13;;;7.90;;
10872;SDS011;34586;53.616;10.032;2023-07-22T02:39:33;13.43;;;8.63;;
10872;SDS011;34586;53.616;10.032;2023-07-22T02:41:59;12.93;;;7.70;;
10872;SDS011;34586;53.616;10.032;2023-07-22T02:44:25;10.10;;;7.27;;
10872;SDS011;34586;53.616;10.032;2023-07-22T02:46:51;11.07;;;7.17;;
10872;SDS011;34586;53.616;10.032;2023-07-22T02:49:17;14.30;;;7.70;;
10872;SDS011;34586;53.616;10.032;2023-07-22T02:51:43;11.17;;;7.70;;
10872;SDS011;34586;53.616;10.032;2023-07-22T02:54:09;11.90;;;7.47;;
10872;SDS011;34586;53.616;10.032;2023-07-22T02:56:34;12.90;;;7.83;;
10872;SDS011;34586;53.616;10.032;2023-07-22T02:59:00;11.13;;;7.67;;
10872;SDS011;34586;53.616;10.032;2023-07-22T03:01:26;12.13;;;7.10;;
10872;SDS011;34586;53.616;10.032;2023-07-22T03:03:51;10.73;;;8.27;;
10872;SDS011;34586;53.616;10.032;2023-07-22T03:06:18;12.97;;;8.23;;
10872;SDS011;34586;53.616;10.032;2023-07-22T03:08:44;13.87;;;8.80;;
10872;SDS011;34586;53.616;10.032;2023-07-22T03:11:09;11.97;;;8.50;;
10872;SDS011;34586;53.616;10.032;2023-07-22T03:13:35;12.40;;;7.37;;
10872;SDS011;34586;53.616;10.032;2023-07-22T03:16:00;12.23;;;8.00;;
10872;SDS011;34586;53.616;10.032;2023-07-22T03:18:29;12.50;;;7.80;;
10872;SDS011;34586;53.616;10.032;2023-07-22T03:20:56;13.93;;;8.10;;
10872;SDS011;34586;53.616;10.032;2023-07-22T03:23:22;13.37;;;8.33;;
10872;SDS011;34586;53.616;10.032;2023-07-22T03:25:47;11.23;;;7.57;;
10872;SDS011;34586;53.616;10.032;2023-07-22T03:28:13;12.13;;;7.50;;
10872;SDS011;34586;53.616;10.032;2023-07-22T03:30:39;11.57;;;8.03;;
10872;SDS011;34586;53.616;10.032;2023-07-22T03:33:04;11.37;;;8.10;;
10872;SDS011;34586;53.616;10.032;2023-07-22T03:35:30;11.60;;;7.30;;
10872;SDS011;34586;53.616;10.032;2023-07-22T03:37:57;10.83;;;7.97;;
10872;SDS011;34586;53.616;10.032;2023-07-22T03:40:23;11.33;;;7.73;;
10872;SDS011;34586;53.616;10.032;2023-07-22T03:42:54;11.37;;;8.30;;
10872;SDS011;34586;53.616;10.032;2023-07-22T03:45:20;12.97;;;8.50;;
10872;SDS011;34586;53.616;10.032;2023-07-22T03:47:50;13.07;;;8.37;;
10872;SDS011;34586;53.616;10.032;2023-07-22T03:50:17;12.63;;;8.00;;
10872;SDS011;34586;53.616;10.032;2023-07-22T03:52:43;11.30;;;7.77;;
10872;SDS011;34586;53.616;10.032;2023-07-22T03:55:09;11.53;;;7.97;;
10872;SDS011;34586;53.616;10.032;2023-07-22T03:57:35;10.50;;;8.43;;
10872;SDS011;34586;53.616;10.032;2023-07-22T04:00:01;12.27;;;7.93;;
10872;SDS011;34586;53.616;10.032;2023-07-22T04:02:28;11.03;;;7.83;;
10872;SDS011;34586;53.616;10.032;2023-07-22T04:04:54;12.30;;;8.37;;
10872;SDS011;34586;53.616;10.032;2023-07-22T04:07:21;11.57;;;8.10;;
10872;SDS011;34586;53.616;10.032;2023-07-22T04:09:47;11.23;;;7.47;;
10872;SDS011;34586;53.616;10.032;2023-07-22T04:12:13;11.73;;;7.70;;
10872;SDS011;34586;53.616;10.032;2023-07-22T04:14:38;12.23;;;7.63;;
10872;SDS011;34586;53.616;10.032;2023-07-22T04:17:04;9.80;;;7.50;;
10872;SDS011;34586;53.616;10.032;2023-07-22T04:19:30;13.20;;;7.50;;
10872;SDS011;34586;53.616;10.032;2023-07-22T04:21:56;9.93;;;7.00;;
10872;SDS011;34586;53.616;10.032;2023-07-22T04:24:21;9.43;;;7.27;;
10872;SDS011;34586;53.616;10.032;2023-07-22T04:26:48;11.17;;;7.27;;
10872;SDS011;34586;53.616;10.032;2023-07-22T04:29:13;10.27;;;6.83;;
10872;SDS011;34586;53.616;10.032;2023-07-22T04:31:39;9.80;;;7.20;;
10872;SDS011;34586;53.616;10.032;2023-07-22T04:34:05;10.60;;;6.90;;
10872;SDS011;34586;53.616;10.032;2023-07-22T04:36:31;10.67;;;6.97;;
10872;SDS011;34586;53.616;10.032;2023-07-22T04:38:56;10.17;;;7.10;;
10872;SDS011;34586;53.616;10.032;2023-07-22T04:41:22;14.20;;;6.97;;
10872;SDS011;34586;53.616;10.032;2023-07-22T04:43:48;9.90;;;6.93;;
10872;SDS011;34586;53.616;10.032;2023-07-22T04:46:15;10.93;;;6.93;;
10872;SDS011;34586;53.616;10.032;2023-07-22T04:48:41;9.57;;;6.93;;
10872;SDS011;34586;53.616;10.032;2023-07-22T04:51:07;10.87;;;6.63;;
10872;SDS011;34586;53.616;10.032;2023-07-22T04:53:32;10.07;;;7.40;;
10872;SDS011;34586;53.616;10.032;2023-07-22T04:55:58;12.93;;;7.70;;
10872;SDS011;34586;53.616;10.032;2023-07-22T04:58:24;9.43;;;7.03;;
10872;SDS011;34586;53.616;10.032;2023-07-22T05:00:50;12.03;;;6.80;;
10872;SDS011;34586;53.616;10.032;2023-07-22T05:03:16;9.23;;;7.03;;
10872;SDS011;34586;53.616;10.032;2023-07-22T05:05:41;11.37;;;6.43;;
10872;SDS011;34586;53.616;10.032;2023-07-22T05:08:07;10.27;;;7.37;;
10872;SDS011;34586;53.616;10.032;2023-07-22T05:10:33;9.27;;;6.90;;
10872;SDS011;34586;53.616;10.032;2023-07-22T05:12:59;10.57;;;6.50;;
10872;SDS011;34586;53.616;10.032;2023-07-22T05:15:24;13.13;;;7.17;;
10872;SDS011;34586;53.616;10.032;2023-07-22T05:17:50;8.23;;;6.80;;
10872;SDS011;34586;53.616;10.032;2023-07-22T05:20:16;10.00;;;6.57;;
10872;SDS011;34586;53.616;10.032;2023-07-22T05:22:42;8.90;;;6.70;;
10872;SDS011;34586;53.616;10.032;2023-07-22T05:25:08;9.20;;;6.57;;
10872;SDS011;34586;53.616;10.032;2023-07-22T05:27:35;8.67;;;6.37;;
10872;SDS011;34586;53.616;10.032;2023-07-22T05:30:01;9.93;;;6.50;;
10872;SDS011;34586;53.616;10.032;2023-07-22T05:32:30;6.93;;;5.63;;
10872;SDS011;34586;53.616;10.032;2023-07-22T05:34:56;7.73;;;6.93;;
10872;SDS011;34586;53.616;10.032;2023-07-22T05:37:22;8.27;;;6.17;;
10872;SDS011;34586;53.616;10.032;2023-07-22T05:39:50;7.80;;;5.77;;
10872;SDS011;34586;53.616;10.032;2023-07-22T05:42:16;8.10;;;5.87;;
10872;SDS011;34586;53.616;10.032;2023-07-22T05:44:43;8.00;;;5.77;;
10872;SDS011;34586;53.616;10.032;2023-07-22T05:47:08;6.63;;;5.30;;
10872;SDS011;34586;53.616;10.032;2023-07-22T05:49:34;9.87;;;5.53;;
10872;SDS011;34586;53.616;10.032;2023-07-22T05:52:00;8.03;;;4.80;;
10872;SDS011;34586;53.616;10.032;2023-07-22T05:54:25;8.07;;;5.60;;
10872;SDS011;34586;53.616;10.032;2023-07-22T05:56:51;6.50;;;5.07;;
10872;SDS011;34586;53.616;10.032;2023-07-22T05:59:17;8.43;;;5.33;;
10872;SDS011;34586;53.616;10.032;2023-07-22T06:01:42;7.33;;;4.77;;
10872;SDS011;34586;53.616;10.032;2023-07-22T06:04:08;5.67;;;4.63;;
10872;SDS011;34586;53.616;10.032;2023-07-22T06:06:34;6.53;;;4.40;;
10872;SDS011;34586;53.616;10.032;2023-07-22T06:09:00;5.63;;;4.00;;
10872;SDS011;34586;53.616;10.032;2023-07-22T06:11:26;8.00;;;4.47;;
10872;SDS011;34586;53.616;10.032;2023-07-22T06:13:51;6.43;;;4.30;;
10872;SDS011;34586;53.616;10.032;2023-07-22T06:16:17;7.07;;;4.33;;
10872;SDS011;34586;53.616;10.032;2023-07-22T06:18:42;6.07;;;4.57;;
10872;SDS011;34586;53.616;10.032;2023-07-22T06:21:08;9.67;;;4.77;;
10872;SDS011;34586;53.616;10.032;2023-07-22T06:23:34;8.67;;;4.50;;
10872;SDS011;34586;53.616;10.032;2023-07-22T06:25:59;5.67;;;4.40;;
10872;SDS011;34586;53.616;10.032;2023-07-22T06:28:25;5.97;;;4.40;;
10872;SDS011;34586;53.616;10.032;2023-07-22T06:30:50;6.77;;;3.80;;
10872;SDS011;34586;53.616;10.032;2023-07-22T06:33:16;4.10;;;3.63;;
10872;SDS011;34586;53.616;10.032;2023-07-22T06:35:42;6.80;;;3.53;;
10872;SDS011;34586;53.616;10.032;2023-07-22T06:38:07;6.40;;;3.60;;
10872;SDS011;34586;53.616;10.032;2023-07-22T06:40:33;4.80;;;3.30;;
10872;SDS011;34586;53.616;10.032;2023-07-22T06:42:58;6.87;;;3.50;;
10872;SDS011;34586;53.616;10.032;2023-07-22T06:45:24;3.57;;;2.87;;
10872;SDS011;34586;53.616;10.032;2023-07-22T06:47:50;2.83;;;2.50;;
10872;SDS011;34586;53.616;10.032;2023-07-22T06:50:15;4.20;;;2.70;;
10872;SDS011;34586;53.616;10.032;2023-07-22T06:52:41;4.50;;;2.90;;
10872;SDS011;34586;53.616;10.032;2023-07-22T06:55:06;5.53;;;2.50;;
10872;SDS011;34586;53.616;10.032;2023-07-22T06:57:32;6.13;;;2.40;;
10872;SDS011;34586;53.616;10.032;2023-07-22T06:59:58;3.33;;;2.73;;
10872;SDS011;34586;53.616;10.032;2023-07-22T07:02:24;4.63;;;2.20;;
10872;SDS011;34586;53.616;10.032;2023-07-22T07:04:50;3.23;;;2.30;;
10872;SDS011;34586;53.616;10.032;2023-07-22T07:07:16;4.50;;;2.37;;
10872;SDS011;34586;53.616;10.032;2023-07-22T07:09:42;4.13;;;2.30;;
10872;SDS011;34586;53.616;10.032;2023-07-22T07:12:08;3.17;;;1.70;;
10872;SDS011;34586;53.616;10.032;2023-07-22T07:14:34;3.40;;;1.80;;
10872;SDS011;34586;53.616;10.032;2023-07-22T07:17:00;4.37;;;1.87;;
10872;SDS011;34586;53.616;10.032;2023-07-22T07:19:26;5.33;;;1.87;;
10872;SDS011;34586;53.616;10.032;2023-07-22T07:21:52;2.27;;;2.00;;
10872;SDS011;34586;53.616;10.032;2023-07-22T07:24:18;6.60;;;1.83;;
10872;SDS011;34586;53.616;10.032;2023-07-22T07:26:44;3.77;;;1.67;;
10872;SDS011;34586;53.616;10.032;2023-07-22T07:29:10;4.17;;;1.60;;
10872;SDS011;34586;53.616;10.032;2023-07-22T07:31:36;4.00;;;1.60;;
10872;SDS011;34586;53.616;10.032;2023-07-22T07:34:02;3.37;;;2.10;;
10872;SDS011;34586;53.616;10.032;2023-07-22T07:36:28;2.23;;;1.57;;
10872;SDS011;34586;53.616;10.032;2023-07-22T07:38:53;2.47;;;1.43;;
10872;SDS011;34586;53.616;10.032;2023-07-22T07:41:19;3.20;;;1.70;;
10872;SDS011;34586;53.616;10.032;2023-07-22T07:43:45;4.70;;;1.50;;
10872;SDS011;34586;53.616;10.032;2023-07-22T07:46:32;3.27;;;1.40;;
10872;SDS011;34586;53.616;10.032;2023-07-22T07:48:58;2.47;;;1.43;;
10872;SDS011;34586;53.616;10.032;2023-07-22T07:51:26;3.63;;;1.70;;
10872;SDS011;34586;53.616;10.032;2023-07-22T07:53:52;3.90;;;1.23;;
10872;SDS011;34586;53.616;10.032;2023-07-22T07:56:19;2.17;;;1.07;;
10872;SDS011;34586;53.616;10.032;2023-07-22T07:58:46;1.20;;;0.90;;
10872;SDS011;34586;53.616;10.032;2023-07-22T08:01:13;1.83;;;1.10;;
10872;SDS011;34586;53.616;10.032;2023-07-22T08:03:39;2.43;;;1.30;;
10872;SDS011;34586;53.616;10.032;2023-07-22T08:06:09;1.70;;;1.30;;
10872;SDS011;34586;53.616;10.032;2023-07-22T08:08:35;2.33;;;1.17;;
10872;SDS011;34586;53.616;10.032;2023-07-22T08:11:02;5.33;;;1.27;;
10872;SDS011;34586;53.616;10.032;2023-07-22T08:13:35;2.30;;;1.10;;
10872;SDS011;34586;53.616;10.032;2023-07-22T08:16:02;3.50;;;1.20;;
10872;SDS011;34586;53.616;10.032;2023-07-22T08:18:29;1.30;;;1.00;;
10872;SDS011;34586;53.616;10.032;2023-07-22T08:20:55;2.43;;;1.20;;
10872;SDS011;34586;53.616;10.032;2023-07-22T08:23:21;2.47;;;0.80;;
10872;SDS011;34586;53.616;10.032;2023-07-22T08:25:47;2.23;;;1.10;;
10872;SDS011;34586;53.616;10.032;2023-07-22T08:28:13;2.90;;;1.00;;
10872;SDS011;34586;53.616;10.032;2023-07-22T08:30:39;2.13;;;0.97;;
10872;SDS011;34586;53.616;10.032;2023-07-22T08:33:09;1.40;;;0.87;;
10872;SDS011;34586;53.616;10.032;2023-07-22T08:35:37;2.20;;;0.70;;
10872;SDS011;34586;53.616;10.032;2023-07-22T08:38:03;1.50;;;1.00;;
10872;SDS011;34586;53.616;10.032;2023-07-22T08:40:32;1.50;;;0.77;;
10872;SDS011;34586;53.616;10.032;2023-07-22T08:42:59;1.87;;;0.80;;
10872;SDS011;34586;53.616;10.032;2023-07-22T08:45:27;1.23;;;1.00;;
10872;SDS011;34586;53.616;10.032;2023-07-22T08:47:57;0.73;;;0.70;;
10872;SDS011;34586;53.616;10.032;2023-07-22T08:50:24;2.03;;;0.80;;
10872;SDS011;34586;53.616;10.032;2023-07-22T08:52:54;0.67;;;0.67;;
10872;SDS011;34586;53.616;10.032;2023-07-22T08:55:19;0.63;;;0.60;;
10872;SDS011;34586;53.616;10.032;2023-07-22T08:57:45;2.37;;;0.80;;
10872;SDS011;34586;53.616;10.032;2023-07-22T09:00:13;3.30;;;0.60;;
10872;SDS011;34586;53.616;10.032;2023-07-22T09:02:40;1.27;;;0.53;;
10872;SDS011;34586;53.616;10.032;2023-07-22T09:05:06;1.37;;;0.57;;
10872;SDS011;34586;53.616;10.032;2023-07-22T09:07:33;1.97;;;0.53;;
10872;SDS011;34586;53.616;10.032;2023-07-22T09:09:59;0.93;;;0.40;;
10872;SDS011;34586;53.616;10.032;2023-07-22T09:12:25;1.93;;;0.60;;
10872;SDS011;34586;53.616;10.032;2023-07-22T09:14:51;2.20;;;0.80;;
10872;SDS011;34586;53.616;10.032;2023-07-22T09:17:18;1.63;;;0.70;;
10872;SDS011;34586;53.616;10.032;2023-07-22T09:19:43;2.00;;;0.77;;
10872;SDS011;34586;53.616;10.032;2023-07-22T09:22:09;0.70;;;0.57;;
10872;SDS011;34586;53.616;10.032;2023-07-22T09:24:34;1.80;;;0.60;;
10872;SDS011;34586;53.616;10.032;2023-07-22T09:27:00;1.13;;;0.50;;
10872;SDS011;34586;53.616;10.032;2023-07-22T09:29:32;2.30;;;0.70;;
10872;SDS011;34586;53.616;10.032;2023-07-22T09:32:02;2.80;;;0.80;;
10872;SDS011;34586;53.616;10.032;2023-07-22T09:34:28;0.77;;;0.43;;
10872;SDS011;34586;53.616;10.032;2023-07-22T09:36:55;2.00;;;0.60;;
10872;SDS011;34586;53.616;10.032;2023-07-22T09:39:23;2.53;;;0.63;;
10872;SDS011;34586;53.616;10.032;2023-07-22T09:41:49;1.23;;;0.60;;
10872;SDS011;34586;53.616;10.032;2023-07-22T09:44:17;1.40;;;0.80;;
10872;SDS011;34586;53.616;10.032;2023-07-22T09:46:46;0.70;;;0.60;;
10872;SDS011;34586;53.616;10.032;2023-07-22T09:49:16;4.17;;;0.70;;
10872;SDS011;34586;53.616;10.032;2023-07-22T09:51:43;0.57;;;0.50;;
10872;SDS011;34586;53.616;10.032;2023-07-22T09:54:09;1.53;;;0.70;;
10872;SDS011;34586;53.616;10.032;2023-07-22T09:56:45;2.97;;;0.60;;
10872;SDS011;34586;53.616;10.032;2023-07-22T09:59:12;1.43;;;0.60;;
10872;SDS011;34586;53.616;10.032;2023-07-22T10:01:39;2.00;;;0.80;;
10872;SDS011;34586;53.616;10.032;2023-07-22T10:04:06;1.57;;;0.90;;
10872;SDS011;34586;53.616;10.032;2023-07-22T10:06:33;2.07;;;0.50;;
10872;SDS011;34586;53.616;10.032;2023-07-22T10:09:05;0.57;;;0.57;;
10872;SDS011;34586;53.616;10.032;2023-07-22T10:11:33;1.00;;;0.50;;
10872;SDS011;34586;53.616;10.032;2023-07-22T10:14:02;1.50;;;0.60;;
10872;SDS011;34586;53.616;10.032;2023-07-22T10:16:29;1.37;;;0.90;;
10872;SDS011;34586;53.616;10.032;2023-07-22T10:18:56;3.83;;;0.93;;
10872;SDS011;34586;53.616;10.032;2023-07-22T10:21:26;2.57;;;0.80;;
10872;SDS011;34586;53.616;10.032;2023-07-22T10:23:53;1.80;;;0.60;;
10872;SDS011;34586;53.616;10.032;2023-07-22T10:26:20;1.03;;;0.60;;
10872;SDS011;34586;53.616;10.032;2023-07-22T10:28:46;1.20;;;0.80;;
10872;SDS011;34586;53.616;10.032;2023-07-22T10:31:15;0.73;;;0.73;;
10872;SDS011;34586;53.616;10.032;2023-07-22T10:33:47;0.70;;;0.70;;
10872;SDS011;34586;53.616;10.032;2023-07-22T10:36:14;0.90;;;0.80;;
10872;SDS011;34586;53.616;10.032;2023-07-22T10:38:41;1.17;;;0.70;;
10872;SDS011;34586;53.616;10.032;2023-07-22T10:41:14;2.00;;;0.83;;
10872;SDS011;34586;53.616;10.032;2023-07-22T10:43:54;2.27;;;1.03;;
10872;SDS011;34586;53.616;10.032;2023-07-22T10:46:34;2.10;;;0.73;;
10872;SDS011;34586;53.616;10.032;2023-07-22T10:49:08;1.07;;;0.83;;
10872;SDS011;34586;53.616;10.032;2023-07-22T10:51:38;0.97;;;0.83;;
10872;SDS011;34586;53.616;10.032;2023-07-22T10:54:11;0.70;;;0.70;;
10872;SDS011;34586;53.616;10.032;2023-07-22T10:56:37;1.47;;;1.20;;
10872;SDS011;34586;53.616;10.032;2023-07-22T10:59:05;2.30;;;1.10;;
10872;SDS011;34586;53.616;10.032;2023-07-22T11:01:38;2.60;;;1.10;;
10872;SDS011;34586;53.616;10.032;2023-07-22T11:09:56;0.73;;;0.73;;
10872;SDS011;34586;53.616;10.032;2023-07-22T11:12:07;1.90;;;1.10;;
10872;SDS011;34586;53.616;10.032;2023-07-22T11:14:45;1.40;;;1.03;;
10872;SDS011;34586;53.616;10.032;2023-07-22T11:17:12;1.20;;;1.10;;
10872;SDS011;34586;53.616;10.032;2023-07-22T11:19:38;2.27;;;1.10;;
10872;SDS011;34586;53.616;10.032;2023-07-22T11:22:04;1.37;;;1.00;;
10872;SDS011;34586;53.616;10.032;2023-07-22T11:24:31;1.50;;;1.07;;
10872;SDS011;34586;53.616;10.032;2023-07-22T11:27:07;1.30;;;1.20;;
10872;SDS011;34586;53.616;10.032;2023-07-22T11:29:35;2.90;;;1.40;;
10872;SDS011;34586;53.616;10.032;2023-07-22T11:32:01;1.87;;;1.57;;
10872;SDS011;34586;53.616;10.032;2023-07-22T11:34:28;2.83;;;1.33;;
10872;SDS011;34586;53.616;10.032;2023-07-22T11:36:54;2.63;;;1.67;;
10872;SDS011;34586;53.616;10.032;2023-07-22T11:39:21;1.70;;;1.60;;
10872;SDS011;34586;53.616;10.032;2023-07-22T11:41:48;1.83;;;1.73;;
10872;SDS011;34586;53.616;10.032;2023-07-22T11:44:16;2.00;;;1.77;;
10872;SDS011;34586;53.616;10.032;2023-07-22T11:51:54;2.33;;;1.90;;
10872;SDS011;34586;53.616;10.032;2023-07-22T11:54:21;1.90;;;1.80;;
10872;SDS011;34586;53.616;10.032;2023-07-22T11:56:47;2.57;;;2.30;;
10872;SDS011;34586;53.616;10.032;2023-07-22T11:59:13;3.17;;;2.23;;
10872;SDS011;34586;53.616;10.032;2023-07-22T12:01:38;2.10;;;2.00;;
10872;SDS011;34586;53.616;10.032;2023-07-22T12:04:09;2.97;;;2.00;;
10872;SDS011;34586;53.616;10.032;2023-07-22T12:06:36;1.90;;;1.80;;
10872;SDS011;34586;53.616;10.032;2023-07-22T12:09:02;2.10;;;2.00;;
10872;SDS011;34586;53.616;10.032;2023-07-22T12:11:27;2.27;;;2.00;;
10872;SDS011;34586;53.616;10.032;2023-07-22T12:14:04;2.00;;;1.90;;
10872;SDS011;34586;53.616;10.032;2023-07-22T12:16:34;3.63;;;2.70;;
10872;SDS011;34586;53.616;10.032;2023-07-22T12:19:01;2.27;;;2.10;;
10872;SDS011;34586;53.616;10.032;2023-07-22T12:21:27;2.47;;;2.27;;
10872;SDS011;34586;53.616;10.032;2023-07-22T12:23:53;2.30;;;2.10;;
10872;SDS011;34586;53.616;10.032;2023-07-22T12:26:19;3.57;;;2.50;;
10872;SDS011;34586;53.616;10.032;2023-07-22T12:28:45;4.30;;;2.40;;
10872;SDS011;34586;53.616;10.032;2023-07-22T12:31:11;3.97;;;3.10;;
10872;SDS011;34586;53.616;10.032;2023-07-22T12:33:36;3.10;;;2.80;;
10872;SDS011;34586;53.616;10.032;2023-07-22T12:36:02;2.67;;;2.47;;
10872;SDS011;34586;53.616;10.032;2023-07-22T12:38:28;3.13;;;2.93;;
10872;SDS011;34586;53.616;10.032;2023-07-22T12:40:53;3.50;;;3.00;;
10872;SDS011;34586;53.616;10.032;2023-07-22T12:43:19;3.10;;;2.90;;
10872;SDS011;34586;53.616;10.032;2023-07-22T12:45:44;4.20;;;3.20;;
10872;SDS011;34586;53.616;10.032;2023-07-22T12:48:10;3.80;;;3.50;;
10872;SDS011;34586;53.616;10.032;2023-07-22T12:50:36;3.50;;;3.20;;
10872;SDS011;34586;53.616;10.032;2023-07-22T12:53:02;3.50;;;3.20;;
10872;SDS011;34586;53.616;10.032;2023-07-22T12:55:28;3.90;;;3.60;;
10872;SDS011;34586;53.616;10.032;2023-07-22T12:57:54;4.37;;;3.63;;
10872;SDS011;34586;53.616;10.032;2023-07-22T13:00:19;3.67;;;3.37;;
10872;SDS011;34586;53.616;10.032;2023-07-22T13:02:46;3.60;;;3.30;;
10872;SDS011;34586;53.616;10.032;2023-07-22T13:05:11;3.87;;;3.57;;
10872;SDS011;34586;53.616;10.032;2023-07-22T13:07:37;4.43;;;4.03;;
10872;SDS011;34586;53.616;10.032;2023-07-22T13:10:03;4.60;;;4.13;;
10872;SDS011;34586;53.616;10.032;2023-07-22T13:12:32;4.40;;;4.00;;
10872;SDS011;34586;53.616;10.032;2023-07-22T13:14:58;3.77;;;3.47;;
10872;SDS011;34586;53.616;10.032;2023-07-22T13:17:24;4.23;;;3.73;;
10872;SDS011;34586;53.616;10.032;2023-07-22T13:19:49;4.63;;;3.97;;
10872;SDS011;34586;53.616;10.032;2023-07-22T13:22:15;6.80;;;4.20;;
10872;SDS011;34586;53.616;10.032;2023-07-22T13:24:40;5.10;;;4.60;;
10872;SDS011;34586;53.616;10.032;2023-07-22T13:27:06;5.10;;;4.60;;
10872;SDS011;34586;53.616;10.032;2023-07-22T13:29:32;5.70;;;4.73;;
10872;SDS011;34586;53.616;10.032;2023-07-22T13:31:57;5.23;;;4.53;;
10872;SDS011;34586;53.616;10.032;2023-07-22T13:34:23;4.97;;;4.53;;
10872;SDS011;34586;53.616;10.032;2023-07-22T13:36:48;5.70;;;4.53;;
10872;SDS011;34586;53.616;10.032;2023-07-22T13:39:14;4.60;;;4.17;;
10872;SDS011;34586;53.616;10.032;2023-07-22T13:41:40;7.20;;;4.73;;
10872;SDS011;34586;53.616;10.032;2023-07-22T13:44:05;5.50;;;4.80;;
10872;SDS011;34586;53.616;10.032;2023-07-22T13:46:31;5.63;;;5.07;;
10872;SDS011;34586;53.616;10.032;2023-07-22T13:48:57;7.10;;;5.60;;
10872;SDS011;34586;53.616;10.032;2023-07-22T13:51:22;7.47;;;6.03;;
10872;SDS011;34586;53.616;10.032;2023-07-22T13:53:48;7.27;;;5.90;;
10872;SDS011;34586;53.616;10.032;2023-07-22T13:56:14;7.60;;;5.43;;
10872;SDS011;34586;53.616;10.032;2023-07-22T13:58:39;5.23;;;4.73;;
10872;SDS011;34586;53.616;10.032;2023-07-22T14:01:05;9.90;;;5.90;;
10872;SDS011;34586;53.616;10.032;2023-07-22T14:03:30;5.80;;;5.23;;
10872;SDS011;34586;53.616;10.032;2023-07-22T14:05:56;6.53;;;5.80;;
10872;SDS011;34586;53.616;10.032;2023-07-22T14:08:22;6.13;;;5.53;;
10872;SDS011;34586;53.616;10.032;2023-07-22T14:10:48;7.97;;;5.73;;
10872;SDS011;34586;53.616;10.032;2023-07-22T14:13:14;7.47;;;5.57;;
10872;SDS011;34586;53.616;10.032;2023-07-22T14:15:39;6.10;;;5.10;;
10872;SDS011;34586;53.616;10.032;2023-07-22T14:18:06;5.83;;;4.50;;
10872;SDS011;34586;53.616;10.032;2023-07-22T14:20:32;6.03;;;5.43;;
10872;SDS011;34586;53.616;10.032;2023-07-22T14:22:58;6.47;;;5.40;;
10872;SDS011;34586;53.616;10.032;2023-07-22T14:25:23;4.93;;;4.53;;
10872;SDS011;34586;53.616;10.032;2023-07-22T14:27:49;5.73;;;5.00;;
10872;SDS011;34586;53.616;10.032;2023-07-22T14:30:15;5.97;;;4.70;;
10872;SDS011;34586;53.616;10.032;2023-07-22T14:32:41;5.10;;;4.60;;
10872;SDS011;34586;53.616;10.032;2023-07-22T14:35:07;6.23;;;4.50;;
10872;SDS011;34586;53.616;10.032;2023-07-22T14:37:32;4.27;;;3.87;;